• Join FlightAware (Why Join?)
  • Login
  • US Flag 
02:49PM EDT


 

Airport Tracker/Info


-or-


 

Live Flight TrackerFlight Track Log ✈ AVN11 ✈ 08-Jan-2014 ✈ YSSY / SYD - NVVV / VLI

Flight Track Log - Related Links

Times and Time Zones

All times are in EST time to prevent confusion due to time zone crossing. See the AVN11 flight status page for this flight to view local times or setup timezone preferences in your user account.

Time Position Orientation Groundspeed Altitude Reporting Facility
EST Latitude Longitude Course Direction KTS MPH feet Rate Location/Type
04:00AM -33.9409 151.1746 160° South 98 113  Level FlightAware ADS-B (YRPA)
04:01AM -33.9639 151.1805 168° South 169 194 100 900 Climbing FlightAware ADS-B (YRAY)
04:01AM -33.9782 151.1815 176° South 173 199 800 1,920 Climbing FlightAware ADS-B
04:01AM -33.9917 151.1801 185° South 180 207 1,200 1,380 Climbing FlightAware ADS-B
04:02AM -34.0197 151.1768 186° South 210 242 1,900 1,860 Climbing FlightAware ADS-B (YRAY)
04:02AM -34.0369 151.1788 175° South 216 249 2,700 2,040 Climbing FlightAware ADS-B
04:02AM -34.0481 151.1841 159° South 225 259 3,000 1,320 Climbing FlightAware ADS-B (YSSY / SYD)
04:02AM -34.0559 151.1935 135° Southeast 231 266 3,200 1,080 Climbing FlightAware ADS-B
04:03AM -34.0603 151.2057 113° Southeast 253 291 3,400 1,020 Climbing FlightAware ADS-B (YSSY / SYD)
04:03AM -34.0668 151.2420 102° East 281 323 3,800 960 Climbing FlightAware ADS-B (YSSY / SYD)
04:03AM -34.0679 151.2486 102° East 284 327 3,800 1,380 Level FlightAware ADS-B (YRPA)
04:03AM -34.0717 151.2715 101° East 296 341 4,300 3,000 Climbing FlightAware ADS-B (YSSY / SYD)
04:03AM -34.0715 151.2907 89° East 304 350 5,100 2,400 Climbing FlightAware ADS-B
04:04AM -34.0656 151.3074 67° East 307 353 5,100 1,320 Level FlightAware ADS-B (YSSY / SYD)
04:04AM -34.0461 151.3339 48° Northeast 318 366 5,800 2,520 Climbing FlightAware ADS-B (YSSY / SYD)
04:04AM -34.0409 151.3414 50° Northeast 319 367 6,200 4,200 Climbing FlightAware ADS-B
04:04AM -34.0330 151.3529 50° Northeast 321 369 6,500 2,040 Climbing FlightAware ADS-B (YPLB)
04:05AM -34.0166 151.3775 51° Northeast 326 375 7,100 2,160 Climbing FlightAware ADS-B (YRAY)
04:05AM -33.9978 151.4059 52° Northeast 331 381 8,000 2,460 Climbing FlightAware ADS-B (YRAY)
04:05AM -33.9779 151.4363 52° Northeast 339 390 8,900 2,400 Climbing FlightAware ADS-B (YSSY / SYD)
04:06AM -33.9569 151.4680 51° Northeast 344 396 9,800 2,760 Climbing FlightAware ADS-B (YSSY / SYD)
04:06AM -33.9172 151.5276 51° Northeast 349 402 11,600 2,820 Climbing FlightAware ADS-B (YSSY / SYD)
04:07AM -33.8834 151.5780 51° Northeast 349 402 13,200 2,880 Climbing FlightAware ADS-B (YRPA)
04:07AM -33.8505 151.6270 51° Northeast 358 412 14,800 2,880 Climbing FlightAware ADS-B (YSSY / SYD)
04:08AM -33.8168 151.6772 51° Northeast 365 420 16,300 2,640 Climbing FlightAware ADS-B (YRPA)
04:08AM -33.7800 151.7318 51° Northeast 377 434 18,000 2,580 Climbing FlightAware ADS-B (YSSY / SYD)
04:09AM -33.7179 151.8237 51° Northeast 389 448 19,900 2,700 Climbing FlightAware ADS-B (YPLB)
04:09AM -33.6949 151.8575 51° Northeast 393 452 20,700 1,620 Climbing FlightAware ADS-B (YPLB)
04:10AM -33.7018 151.8474 231° Southwest 388 447 20,500 2,100 Descending FlightAware ADS-B (YRPA)
04:10AM -33.6497 151.9247 231° Southwest 402 463 22,100 2,520 Climbing FlightAware ADS-B (YPLB)
04:10AM -33.6556 151.9158 231° Southwest 390 449 22,200 1,740 Climbing Aus ATC (RADAR)
04:11AM -33.6132 151.9787 51° Northeast 411 473 23,400 1,980 Climbing FlightAware ADS-B (YSSY / SYD)
04:11AM -33.5532 152.0675 51° Northeast 420 483 24,800 2,340 Climbing FlightAware ADS-B (YPLB)
04:12AM -33.5568 152.0629 51° Northeast 417 480 25,000 1,320 Climbing Aus ATC (RADAR)
04:12AM -33.5213 152.1146 51° Northeast 427 491 25,600 1,380 Climbing FlightAware ADS-B (YSSY / SYD)
04:13AM -33.4832 152.1709 51° Northeast 435 501 26,400 1,560 Climbing FlightAware ADS-B (YRPA)
04:13AM -33.4232 152.2590 51° Northeast 449 517 27,400 1,440 Climbing FlightAware ADS-B (YPLB)
04:14AM -33.3704 152.3366 51° Northeast 459 528 28,300 1,620 Climbing FlightAware ADS-B (YPLB)
04:14AM -33.3750 152.3303 51° Northeast 446 513 28,600 1,500 Climbing Aus ATC (RADAR)
04:15AM -33.3155 152.4171 51° Northeast 467 537 29,300 960 Climbing FlightAware ADS-B (YPLB)
04:15AM -33.3097 152.4256 51° Northeast 462 532 29,400 1,380 Climbing FlightAware ADS-B (YRPA)
04:15AM -33.2621 152.4960 51° Northeast 471 542 30,400 1,380 Climbing Aus ATC (RADAR)
04:16AM -33.2344 152.5360 51° Northeast 477 549 30,500 1,080 Climbing FlightAware ADS-B (YPLB)
04:16AM -33.1755 152.6226 51° Northeast 483 556 31,400 1,080 Climbing FlightAware ADS-B (YPLB)
04:17AM -33.1413 152.6724 51° Northeast 486 559 31,900 1,260 Climbing FlightAware ADS-B (YRPA)
04:18AM -33.0639 152.7842 50° Northeast 486 559 33,100 1,320 Climbing FlightAware ADS-B (YPLB)
04:18AM -33.0034 152.8714 50° Northeast 490 564 33,900 1,380 Climbing FlightAware ADS-B (YPLB)
04:18AM -33.0070 152.8669 50° Northeast 487 560 34,200 1,140 Climbing Aus ATC (RADAR)
04:19AM -32.9553 152.9402 50° Northeast 493 567 34,700 660 Climbing Aus ATC (RADAR)
04:19AM -32.9420 152.9598 50° Northeast 494 568 34,600 420 Descending FlightAware ADS-B (YPLB)
04:20AM -32.8846 153.0425 50° Northeast 496 571 35,000 420 Climbing FlightAware ADS-B (YPLB)
04:20AM -32.8787 153.0511 50° Northeast 491 565 35,000 600 Level FlightAware ADS-B (YRPA)
04:20AM -32.8516 153.0907 50° Northeast 484 557 35,300 360 Climbing Aus ATC (RADAR)
04:21AM -32.8154 153.1429 50° Northeast 481 554 35,300 -600 Level Aus ATC (RADAR)
04:21AM -32.7960 153.1704 50° Northeast 495 570 35,000  Descending FlightAware ADS-B (YPLB)
04:21AM -32.7646 153.2165 50° Northeast 482 555 35,300  Climbing Aus ATC (RADAR)
04:21AM -32.7396 153.2519 50° Northeast 495 570 35,000  Descending FlightAware ADS-B (YPLB)
04:22AM -32.7011 153.3071 50° Northeast 495 570 35,300  Climbing Aus ATC (RADAR)
04:22AM -32.6824 153.3339 50° Northeast 495 570 35,000  Descending FlightAware ADS-B (YPLB)
04:22AM -32.6500 153.3799 50° Northeast 495 570 35,300  Climbing Aus ATC (RADAR)
04:23AM -32.6226 153.4188 50° Northeast 495 570 35,000 -360 Descending FlightAware ADS-B (YPLB)
04:23AM -32.5646 153.5009 50° Northeast 497 572 35,000  Level FlightAware ADS-B (YPLB)
04:24AM -32.5067 153.5828 50° Northeast 498 573 35,000  Level FlightAware ADS-B (YPLB)
04:25AM -32.4554 153.6551 50° Northeast 501 577 35,000  Level FlightAware ADS-B (YRPA)
04:25AM -32.3961 153.7394 50° Northeast 502 578 35,000 300 Level FlightAware ADS-B (YPLB)
04:25AM -32.4046 153.7280 50° Northeast 485 558 35,200  Climbing Aus ATC (RADAR)
04:26AM -32.3258 153.8388 50° Northeast 504 580 35,000 -180 Descending FlightAware ADS-B (YPLB)
04:27AM -32.2653 153.9239 50° Northeast 506 582 35,000  Level FlightAware ADS-B (YPLB)
04:27AM -32.2156 153.9937 50° Northeast 506 582 35,000  Level FlightAware ADS-B (YPLB)
04:28AM -32.1478 154.0887 50° Northeast 506 582 35,000  Level FlightAware ADS-B (YPLB)
04:29AM -32.0971 154.1596 50° Northeast 506 582 35,000 240 Level FlightAware ADS-B (YPLB)
04:29AM -32.0920 154.1670 50° Northeast 506 582 35,200 240 Climbing Aus ATC (RADAR)
04:29AM -32.0394 154.2410 50° Northeast 506 582 35,200 -360 Level Aus ATC (RADAR)
04:29AM -32.0267 154.2580 50° Northeast 506 582 35,000 -300 Descending FlightAware ADS-B (YPLB)
04:30AM -31.9656 154.3429 50° Northeast 505 581 35,000 180 Level FlightAware ADS-B (YPLB)
04:31AM -31.9189 154.4081 50° Northeast 504 580 35,300  Climbing Aus ATC (RADAR)
04:31AM -31.9029 154.4300 50° Northeast 506 582 35,000  Descending FlightAware ADS-B (YPLB)
04:31AM -31.8657 154.4822 50° Northeast 510 587 35,300  Climbing Aus ATC (RADAR)
04:31AM -31.8450 154.5104 50° Northeast 506 582 35,000  Descending FlightAware ADS-B (YPLB)
04:32AM -31.8027 154.5692 50° Northeast 489 563 35,300  Climbing Aus ATC (RADAR)
04:32AM -31.7839 154.5948 50° Northeast 506 582 35,000 -180 Descending FlightAware ADS-B (YPLB)
04:32AM -31.7494 154.6426 50° Northeast 488 562 35,200  Climbing Aus ATC (RADAR)
04:33AM -31.6912 154.7225 49° Northeast 507 583 35,000  Descending FlightAware ADS-B (YPLB)
04:33AM -31.6967 154.7150 49° Northeast 487 560 35,200  Climbing Aus ATC (RADAR)
04:33AM -31.6605 154.7646 49° Northeast 508 585 35,000  Descending FlightAware ADS-B (YPLB)
04:34AM -31.6461 154.7850 49° Northeast 507 583 35,200 420 Climbing Aus ATC (RADAR)
04:34AM -31.5924 154.8584 49° Northeast 511 588 35,300 -180 Climbing Aus ATC (RADAR)
04:35AM -31.5087 154.9728 49° Northeast 510 587 35,000  Descending FlightAware ADS-B (YPLB)
04:35AM -31.4702 155.0258 49° Northeast 508 585 35,300 180 Climbing Aus ATC (RADAR)
04:36AM -31.4317 155.0783 49° Northeast 510 587 35,200  Descending Aus ATC (RADAR)
04:36AM -31.3777 155.1517 49° Northeast 510 587 35,300 60 Climbing Aus ATC (RADAR)
04:37AM -31.3123 155.2397 49° Northeast 497 572 35,300  Level Aus ATC (RADAR)
04:38AM -31.2587 155.3132 50° Northeast 494 568 35,300 -120 Level Aus ATC (RADAR)
04:38AM -31.2074 155.3833 49° Northeast 513 590 35,200  Descending Aus ATC (RADAR)
04:39AM -31.1575 155.4497 49° Northeast 495 570 35,300 60 Climbing Aus ATC (RADAR)
04:39AM -31.1031 155.5230 49° Northeast 494 568 35,300 -120 Level Aus ATC (RADAR)
04:40AM -31.0177 155.6380 49° Northeast 492 566 35,200  Descending Aus ATC (RADAR)
04:41AM -30.9782 155.6897 48° Northeast 493 567 35,300 60 Climbing Aus ATC (RADAR)
04:41AM -30.9253 155.7611 49° Northeast 485 558 35,300  Level Aus ATC (RADAR)
04:42AM -30.8573 155.8521 49° Northeast 480 552 35,300 -240 Level Aus ATC (RADAR)
04:43AM -30.8044 155.9227 49° Northeast 477 549 35,000  Descending Aus ATC (RADAR)
04:43AM -30.7550 155.9897 49° Northeast 495 570 35,300 240 Climbing Aus ATC (RADAR)
04:44AM -30.7097 156.0498 49° Northeast 494 568 35,300 -120 Level Aus ATC (RADAR)
04:44AM -30.6568 156.1197 49° Northeast 494 568 35,200  Descending Aus ATC (RADAR)
04:45AM -30.5741 156.2292 49° Northeast 492 566 35,300 60 Climbing Aus ATC (RADAR)
04:46AM -30.5436 156.2691 48° Northeast 492 566 35,300 -180 Level Aus ATC (RADAR)
04:46AM -30.5059 156.3188 49° Northeast 493 567 35,200  Descending Aus ATC (RADAR)
04:47AM -30.4524 156.3886 48° Northeast 494 568 35,300  Climbing Aus ATC (RADAR)
04:47AM -30.3837 156.4786 48° Northeast 496 571 35,200 -120 Descending Aus ATC (RADAR)
04:48AM -30.3304 156.5487 49° Northeast 497 572 35,200  Level Aus ATC (RADAR)
04:48AM -30.2844 156.6087 48° Northeast 497 572 35,200  Level Aus ATC (RADAR)
04:49AM -30.2303 156.6788 48° Northeast 499 574 35,200  Level Aus ATC (RADAR)
04:50AM -30.1765 156.7490 48° Northeast 499 574 35,200  Level Aus ATC (RADAR)
04:51AM -30.0842 156.8689 48° Northeast 498 573 35,200  Level Aus ATC (RADAR)
04:51AM -30.0460 156.9185 48° Northeast 496 571 35,200  Level Aus ATC (RADAR)
04:52AM -29.9925 156.9879 48° Northeast 495 570 35,200  Level Aus ATC (RADAR)
04:52AM -29.9316 157.0665 48° Northeast 493 567 35,200  Level Aus ATC (RADAR)
04:53AM -29.8780 157.1351 48° Northeast 492 566 35,200  Level Aus ATC (RADAR)
04:53AM -29.8337 157.1933 49° Northeast 488 562 35,200  Level Aus ATC (RADAR)
04:54AM -29.7791 157.2627 48° Northeast 492 566 35,200  Level Aus ATC (RADAR)
04:54AM -29.7247 157.3319 48° Northeast 495 570 35,200  Level Aus ATC (RADAR)
04:55AM -29.6396 157.4407 48° Northeast 497 572 35,200  Level Aus ATC (RADAR)
04:56AM -29.6092 157.4802 48° Northeast 495 570 35,200  Level Aus ATC (RADAR)
04:56AM -29.5705 157.5297 48° Northeast 496 571 35,200  Level Aus ATC (RADAR)
04:57AM -29.5154 157.5991 48° Northeast 499 574 35,200  Level Aus ATC (RADAR)
04:57AM -29.4523 157.6786 48° Northeast 502 578 35,200  Level Aus ATC (RADAR)
04:58AM -29.3979 157.7480 48° Northeast 500 575 35,200  Level Aus ATC (RADAR)
04:59AM -29.3425 157.8180 48° Northeast 502 578 35,200  Level Aus ATC (RADAR)
04:59AM -29.2963 157.8770 48° Northeast 500 575 35,200  Level Aus ATC (RADAR)
05:00AM -29.2430 157.9458 48° Northeast 495 570 35,200  Level Aus ATC (RADAR)
05:01AM -29.1406 158.0729 47° Northeast 496 571 35,200  Level Aus ATC (RADAR)
05:01AM -29.1007 158.1220 47° Northeast 498 573 35,200  Level Aus ATC (RADAR)
05:02AM -29.0449 158.1901 47° Northeast 499 574 35,200  Level Aus ATC (RADAR)
05:02AM -29.0371 158.1994 46° Northeast 499 574 35,200  Level Aus ATC (RADAR)
05:05AM -28.6955 158.6266 47° Northeast 35,000 -60 Descending Aus ATC (Calculated)
05:07AM -28.5808 158.7690 47° Northeast  Level FlightAware Approximate
05:07AM -28.4958 158.8742 360° North 35,000  Level Aus ATC (Calculated)
05:07AM -28.4958 158.8742 47° Northeast 35,000  Level Aus ATC (Calculated)
05:08AM -28.4355 158.9487 47° Northeast 35,000  Level Aus ATC (Calculated)
05:09AM -28.3993 158.9933 47° Northeast  Level FlightAware Approximate
05:10AM -28.3239 159.0862 47° Northeast  Level FlightAware Approximate
05:10AM -28.2762 159.1442 48° Northeast 35,000  Level Aus ATC (Calculated)
05:11AM -28.2391 159.1903 47° Northeast  Level FlightAware Approximate
05:12AM -28.1644 159.2844 48° Northeast  Level FlightAware Approximate
05:13AM -28.2483 159.1793 228° Southwest  Level FlightAware Approximate
05:14AM -28.3320 159.0740 228° Southwest  Level FlightAware Approximate
05:14AM -27.9718 159.5153 47° Northeast 35,000  Level Aus ATC (Calculated)
05:14AM -27.8796 159.6270 47° Northeast 35,000  Level Aus ATC (Calculated)
05:15AM -27.8350 159.6810 227° Southwest 35,000  Level Aus ATC (Calculated)
05:16AM -27.9755 159.5110 227° Southwest  Level FlightAware Approximate
05:16AM -27.7469 159.7872 40° Northeast 35,000  Level Aus ATC (Calculated)
05:18AM -27.5885 159.9361 47° Northeast  Level Estimated
05:19AM -27.5036 160.0394 47° Northeast  Level FlightAware Approximate
05:20AM -27.4185 160.1425 47° Northeast  Level FlightAware Approximate
05:20AM -27.3623 160.2484 47° Northeast 35,000  Level Aus ATC (Calculated)
05:21AM -27.2887 160.3361 47° Northeast 35,000  Level Aus ATC (Calculated)
05:23AM -27.1584 160.4908 47° Northeast  Level FlightAware Approximate
05:23AM -27.1102 160.5480 47° Northeast 35,000  Level Aus ATC (Calculated)
05:24AM -26.9783 160.7039 46° Northeast 35,000  Level Aus ATC (Calculated)
05:25AM -26.9164 160.7768 46° Northeast 35,000  Level Aus ATC (Calculated)
05:26AM -26.8476 160.8578 46° Northeast  Level FlightAware Approximate
05:27AM -26.7813 160.9356 46° Northeast  Level FlightAware Approximate
05:27AM -26.7363 160.9884 46° Northeast 35,000  Level Aus ATC (Calculated)
05:29AM -26.6010 161.1466 46° Northeast  Level FlightAware Approximate
05:29AM -26.5729 161.1795 46° Northeast 35,000  Level Aus ATC (Calculated)
05:30AM -26.4864 161.2803 46° Northeast  Level FlightAware Approximate
05:31AM -26.3999 161.3809 46° Northeast  Level FlightAware Approximate
05:31AM -26.3750 161.4097 46° Northeast 35,000  Level Aus ATC (Calculated)
05:32AM -26.2884 161.5102 46° Northeast  Level FlightAware Approximate
05:33AM -26.2017 161.6104 46° Northeast  Level FlightAware Approximate
05:34AM -26.1149 161.7106 46° Northeast  Level FlightAware Approximate
05:35AM -26.0281 161.8105 46° Northeast  Level FlightAware Approximate
05:36AM -25.9412 161.9104 46° Northeast  Level FlightAware Approximate
05:37AM -25.8542 162.0101 46° Northeast  Level FlightAware Approximate
05:38AM -25.7672 162.1096 46° Northeast  Level FlightAware Approximate
05:39AM -25.6801 162.2090 46° Northeast  Level FlightAware Approximate
05:40AM -25.5929 162.3082 46° Northeast  Level FlightAware Approximate
05:41AM -25.5057 162.4073 46° Northeast  Level FlightAware Approximate
05:41AM -25.3740 162.5564 46° Northeast 35,000  Level Aus ATC (Calculated)
05:42AM -25.2866 162.6552 46° Northeast  Level FlightAware Approximate
05:43AM -25.1991 162.7538 46° Northeast  Level FlightAware Approximate
05:44AM -25.1116 162.8522 46° Northeast  Level FlightAware Approximate
05:45AM -25.0240 162.9505 45° Northeast  Level FlightAware Approximate
05:46AM -24.9363 163.0487 45° Northeast  Level FlightAware Approximate
05:47AM -25.0240 162.9505 225° Southwest  Level FlightAware Approximate
05:48AM -24.9363 163.0487 45° Northeast  Level FlightAware Approximate
05:49AM -25.0240 162.9505 225° Southwest  Level FlightAware Approximate
05:50AM -24.9363 163.0487 45° Northeast  Level FlightAware Approximate
05:51AM -25.0240 162.9505 225° Southwest  Level FlightAware Approximate
05:52AM -24.9363 163.0487 45° Northeast  Level FlightAware Approximate
05:53AM -25.0240 162.9505 225° Southwest  Level FlightAware Approximate
05:54AM -24.9363 163.0487 45° Northeast  Level FlightAware Approximate
05:55AM -25.0240 162.9505 225° Southwest  Level FlightAware Approximate
05:56AM -24.9363 163.0487 45° Northeast  Level FlightAware Approximate
05:57AM -25.0240 162.9505 225° Southwest  Level FlightAware Approximate
05:58AM -24.9221 163.0302 45° Northeast  Level Estimated
05:59AM -24.8352 163.1292 46° Northeast  Level FlightAware Approximate
06:00AM -24.7482 163.2280 46° Northeast  Level FlightAware Approximate
06:01AM -24.6612 163.3266 46° Northeast  Level FlightAware Approximate
06:02AM -24.5741 163.4251 46° Northeast  Level FlightAware Approximate
06:03AM -24.4870 163.5235 46° Northeast  Level FlightAware Approximate
06:04AM -24.3998 163.6218 46° Northeast  Level FlightAware Approximate
06:05AM -24.3125 163.7199 46° Northeast  Level FlightAware Approximate
06:06AM -24.2252 163.8179 46° Northeast  Level FlightAware Approximate
06:07AM -24.1378 163.9157 46° Northeast  Level FlightAware Approximate
06:08AM -24.0504 164.0134 46° Northeast  Level FlightAware Approximate
06:09AM -23.9628 164.1110 46° Northeast  Level FlightAware Approximate
06:10AM -23.8752 164.2085 46° Northeast  Level FlightAware Approximate
06:11AM -23.7876 164.3058 45° Northeast  Level FlightAware Approximate
06:12AM -23.6999 164.4030 45° Northeast  Level FlightAware Approximate
06:13AM -23.6122 164.5000 45° Northeast  Level FlightAware Approximate
06:14AM -23.5243 164.5970 45° Northeast  Level FlightAware Approximate
06:15AM -23.4179 164.6682 45° Northeast  Level Estimated
06:16AM -23.3303 164.7653 46° Northeast  Level FlightAware Approximate
06:17AM -23.2427 164.8622 45° Northeast  Level FlightAware Approximate
06:18AM -23.1550 164.9591 45° Northeast  Level FlightAware Approximate
06:19AM -23.0673 165.0558 45° Northeast  Level FlightAware Approximate
06:20AM -22.9795 165.1523 45° Northeast  Level FlightAware Approximate
06:21AM -22.8917 165.2488 45° Northeast  Level FlightAware Approximate
06:22AM -22.8038 165.3451 45° Northeast  Level FlightAware Approximate
06:23AM -22.7158 165.4413 45° Northeast  Level FlightAware Approximate
06:24AM -22.6278 165.5373 45° Northeast  Level FlightAware Approximate
06:25AM -22.5397 165.6333 45° Northeast  Level FlightAware Approximate
06:26AM -22.4516 165.7291 45° Northeast  Level FlightAware Approximate
06:27AM -22.3634 165.8248 45° Northeast  Level FlightAware Approximate
06:28AM -22.2752 165.9204 45° Northeast  Level FlightAware Approximate
06:29AM -22.1869 166.0159 45° Northeast  Level FlightAware Approximate
06:30AM -22.0985 166.1112 45° Northeast  Level FlightAware Approximate
06:31AM -21.9859 166.1695 24° Northeast  Level Estimated
06:32AM -21.8726 166.2263 25° Northeast  Level FlightAware Approximate
06:33AM -21.7593 166.2829 25° Northeast  Level FlightAware Approximate
06:34AM -21.6460 166.3395 25° Northeast  Level FlightAware Approximate
06:35AM -21.5326 166.3960 25° Northeast  Level FlightAware Approximate
06:36AM -21.4193 166.4524 25° Northeast  Level FlightAware Approximate
06:37AM -21.3059 166.5087 25° Northeast  Level FlightAware Approximate
06:38AM -21.1925 166.5650 25° Northeast  Level FlightAware Approximate
06:39AM -21.0791 166.6211 25° Northeast  Level FlightAware Approximate
06:40AM -20.9657 166.6772 25° Northeast  Level FlightAware Approximate
06:41AM -20.8522 166.7332 25° Northeast  Level FlightAware Approximate
06:42AM -20.7388 166.7890 25° Northeast  Level FlightAware Approximate
06:43AM -20.6253 166.8449 25° Northeast  Level FlightAware Approximate
06:44AM -20.5117 166.9006 25° Northeast  Level FlightAware Approximate
06:45AM -20.3982 166.9562 25° Northeast  Level FlightAware Approximate
06:46AM -20.2847 167.0118 25° Northeast  Level FlightAware Approximate
06:47AM -20.1711 167.0673 25° Northeast  Level FlightAware Approximate
06:48AM -20.0576 167.1227 25° Northeast  Level FlightAware Approximate
06:49AM -19.9440 167.1780 25° Northeast  Level FlightAware Approximate
06:50AM -19.8304 167.2332 25° Northeast  Level FlightAware Approximate
06:51AM -19.7167 167.2884 25° Northeast  Level FlightAware Approximate
06:52AM -19.6031 167.3435 25° Northeast  Level FlightAware Approximate
06:53AM -19.4909 167.4017 24° Northeast  Level Estimated
06:54AM -19.3763 167.4547 24° Northeast  Level FlightAware Approximate
06:55AM -19.2618 167.5075 24° Northeast  Level FlightAware Approximate
06:56AM -19.1473 167.5603 24° Northeast  Level FlightAware Approximate
06:57AM -19.0327 167.6131 24° Northeast  Level FlightAware Approximate
06:58AM -18.9182 167.6657 23° Northeast  Level FlightAware Approximate
06:59AM -18.8036 167.7183 23° Northeast  Level FlightAware Approximate
07:00AM -18.6890 167.7708 23° Northeast  Level FlightAware Approximate
07:01AM -18.5785 167.8324 24° Northeast  Level Estimated
07:02AM -18.4637 167.8842 23° Northeast  Level FlightAware Approximate
07:03AM -18.3488 167.9360 23° Northeast  Level FlightAware Approximate
07:04AM -18.2340 167.9877 23° Northeast  Level FlightAware Approximate
07:05AM -18.1191 168.0393 23° Northeast  Level FlightAware Approximate
07:06AM -18.0042 168.0909 23° Northeast  Level FlightAware Approximate
07:07AM -17.8892 168.1424 23° Northeast  Level FlightAware Approximate
07:08AM -17.7743 168.1938 23° Northeast  Level FlightAware Approximate
07:09AM -17.6621 168.2439 24° Northeast  Level FlightAware Approximate
07:10AM -17.6993 168.3198 24° Northeast  Level Estimated
07:11AM -17.6993 168.3198 24° Northeast  Level Estimated
07:12AM -17.6993 168.3198 24° Northeast  Level Estimated
07:13AM -17.6993 168.3198 24° Northeast  Level Estimated
07:14AM -17.6993 168.3198 24° Northeast  Level Estimated
07:15AM -17.6993 168.3198 24° Northeast  Level Estimated